sensor_id;sensor_type;location;lat;lon;timestamp;temperature;humidity
69598;SHT31;56802;51.184;-115.558;2022-11-15T00:01:42;-1.50;62.63
69598;SHT31;56802;51.184;-115.558;2022-11-15T00:04:11;-1.54;62.70
69598;SHT31;56802;51.184;-115.558;2022-11-15T00:06:40;-1.57;62.72
69598;SHT31;56802;51.184;-115.558;2022-11-15T00:09:10;-1.66;62.95
69598;SHT31;56802;51.184;-115.558;2022-11-15T00:11:39;-1.73;63.22
69598;SHT31;56802;51.184;-115.558;2022-11-15T00:14:08;-1.76;63.28
69598;SHT31;56802;51.184;-115.558;2022-11-15T00:16:38;-1.76;63.21
69598;SHT31;56802;51.184;-115.558;2022-11-15T00:19:07;-1.80;63.32
69598;SHT31;56802;51.184;-115.558;2022-11-15T00:21:36;-1.87;63.40
69598;SHT31;56802;51.184;-115.558;2022-11-15T00:24:06;-1.89;63.39
69598;SHT31;56802;51.184;-115.558;2022-11-15T00:26:36;-1.91;63.37
69598;SHT31;56802;51.184;-115.558;2022-11-15T00:29:07;-1.97;63.30
69598;SHT31;56802;51.184;-115.558;2022-11-15T00:31:37;-2.04;63.45
69598;SHT31;56802;51.184;-115.558;2022-11-15T00:34:06;-2.09;63.66
69598;SHT31;56802;51.184;-115.558;2022-11-15T00:36:35;-2.16;63.79
69598;SHT31;56802;51.184;-115.558;2022-11-15T00:39:04;-2.19;63.94
69598;SHT31;56802;51.184;-115.558;2022-11-15T00:41:38;-2.18;63.98
69598;SHT31;56802;51.184;-115.558;2022-11-15T00:44:07;-2.24;64.13
69598;SHT31;56802;51.184;-115.558;2022-11-15T00:46:39;-2.26;64.23
69598;SHT31;56802;51.184;-115.558;2022-11-15T00:49:08;-2.29;64.31
69598;SHT31;56802;51.184;-115.558;2022-11-15T00:51:38;-2.31;64.45
69598;SHT31;56802;51.184;-115.558;2022-11-15T00:54:10;-2.34;64.50
69598;SHT31;56802;51.184;-115.558;2022-11-15T00:56:39;-2.39;64.51
69598;SHT31;56802;51.184;-115.558;2022-11-15T00:59:08;-2.44;64.67
69598;SHT31;56802;51.184;-115.558;2022-11-15T01:01:38;-2.46;64.61
69598;SHT31;56802;51.184;-115.558;2022-11-15T01:04:07;-2.48;64.51
69598;SHT31;56802;51.184;-115.558;2022-11-15T01:06:36;-2.55;64.51
69598;SHT31;56802;51.184;-115.558;2022-11-15T01:09:05;-2.61;64.69
69598;SHT31;56802;51.184;-115.558;2022-11-15T01:11:34;-2.71;64.77
69598;SHT31;56802;51.184;-115.558;2022-11-15T01:14:04;-2.76;64.81
69598;SHT31;56802;51.184;-115.558;2022-11-15T01:16:33;-2.83;64.92
69598;SHT31;56802;51.184;-115.558;2022-11-15T01:19:03;-2.89;64.98
69598;SHT31;56802;51.184;-115.558;2022-11-15T01:21:32;-2.95;65.08
69598;SHT31;56802;51.184;-115.558;2022-11-15T01:24:01;-2.99;65.12
69598;SHT31;56802;51.184;-115.558;2022-11-15T01:26:31;-3.05;65.32
69598;SHT31;56802;51.184;-115.558;2022-11-15T01:29:00;-3.10;65.41
69598;SHT31;56802;51.184;-115.558;2022-11-15T01:31:29;-3.10;65.50
69598;SHT31;56802;51.184;-115.558;2022-11-15T01:33:59;-3.11;65.51
69598;SHT31;56802;51.184;-115.558;2022-11-15T01:36:28;-3.17;65.47
69598;SHT31;56802;51.184;-115.558;2022-11-15T01:38:58;-3.25;65.58
69598;SHT31;56802;51.184;-115.558;2022-11-15T01:41:29;-3.28;65.80
69598;SHT31;56802;51.184;-115.558;2022-11-15T01:49:47;-3.40;65.99
69598;SHT31;56802;51.184;-115.558;2022-11-15T01:52:26;-3.45;65.94
69598;SHT31;56802;51.184;-115.558;2022-11-15T01:57:50;-3.50;65.83
69598;SHT31;56802;51.184;-115.558;2022-11-15T02:00:25;-3.54;65.74
69598;SHT31;56802;51.184;-115.558;2022-11-15T02:02:54;-3.62;65.82
69598;SHT31;56802;51.184;-115.558;2022-11-15T02:05:26;-3.70;66.00
69598;SHT31;56802;51.184;-115.558;2022-11-15T02:07:57;-3.75;66.08
69598;SHT31;56802;51.184;-115.558;2022-11-15T02:10:28;-3.84;66.26
69598;SHT31;56802;51.184;-115.558;2022-11-15T02:12:57;-3.91;66.38
69598;SHT31;56802;51.184;-115.558;2022-11-15T02:15:32;-3.97;66.43
69598;SHT31;56802;51.184;-115.558;2022-11-15T02:18:30;-4.04;66.69
69598;SHT31;56802;51.184;-115.558;2022-11-15T02:21:11;-4.05;66.85
69598;SHT31;56802;51.184;-115.558;2022-11-15T02:24:15;-4.13;67.04
69598;SHT31;56802;51.184;-115.558;2022-11-15T02:27:24;-4.16;67.28
69598;SHT31;56802;51.184;-115.558;2022-11-15T02:30:55;-4.22;67.58
69598;SHT31;56802;51.184;-115.558;2022-11-15T02:42:56;-4.24;67.76
69598;SHT31;56802;51.184;-115.558;2022-11-15T02:46:41;-4.23;67.67
69598;SHT31;56802;51.184;-115.558;2022-11-15T02:49:13;-4.18;67.54
69598;SHT31;56802;51.184;-115.558;2022-11-15T02:51:44;-4.20;67.41
69598;SHT31;56802;51.184;-115.558;2022-11-15T02:54:19;-4.22;67.30
69598;SHT31;56802;51.184;-115.558;2022-11-15T02:56:53;-4.24;67.27
69598;SHT31;56802;51.184;-115.558;2022-11-15T02:59:39;-4.28;67.21
69598;SHT31;56802;51.184;-115.558;2022-11-15T03:08:55;-4.49;67.61
69598;SHT31;56802;51.184;-115.558;2022-11-15T03:15:18;-4.64;67.83
69598;SHT31;56802;51.184;-115.558;2022-11-15T03:18:00;-4.71;67.91
69598;SHT31;56802;51.184;-115.558;2022-11-15T03:20:44;-4.77;68.13
69598;SHT31;56802;51.184;-115.558;2022-11-15T03:23:15;-4.83;68.21
69598;SHT31;56802;51.184;-115.558;2022-11-15T03:25:47;-4.90;68.35
69598;SHT31;56802;51.184;-115.558;2022-11-15T03:28:23;-4.93;68.40
69598;SHT31;56802;51.184;-115.558;2022-11-15T03:31:02;-4.97;68.45
69598;SHT31;56802;51.184;-115.558;2022-11-15T03:33:53;-5.02;68.50
69598;SHT31;56802;51.184;-115.558;2022-11-15T03:36:26;-5.07;68.61
69598;SHT31;56802;51.184;-115.558;2022-11-15T03:39:00;-5.12;68.84
69598;SHT31;56802;51.184;-115.558;2022-11-15T03:42:23;-5.13;68.76
69598;SHT31;56802;51.184;-115.558;2022-11-15T03:44:45;-5.16;68.66
69598;SHT31;56802;51.184;-115.558;2022-11-15T03:50:21;-5.22;68.74
69598;SHT31;56802;51.184;-115.558;2022-11-15T03:52:52;-5.23;68.87
69598;SHT31;56802;51.184;-115.558;2022-11-15T03:55:24;-5.21;68.82
69598;SHT31;56802;51.184;-115.558;2022-11-15T03:57:54;-5.16;68.71
69598;SHT31;56802;51.184;-115.558;2022-11-15T04:00:27;-5.11;68.74
69598;SHT31;56802;51.184;-115.558;2022-11-15T04:02:57;-5.04;68.55
69598;SHT31;56802;51.184;-115.558;2022-11-15T04:05:27;-4.97;68.44
69598;SHT31;56802;51.184;-115.558;2022-11-15T04:07:56;-4.91;68.24
69598;SHT31;56802;51.184;-115.558;2022-11-15T04:10:26;-4.90;68.19
69598;SHT31;56802;51.184;-115.558;2022-11-15T04:12:55;-4.94;68.14
69598;SHT31;56802;51.184;-115.558;2022-11-15T04:15:25;-4.93;68.24
69598;SHT31;56802;51.184;-115.558;2022-11-15T04:17:57;-4.98;68.25
69598;SHT31;56802;51.184;-115.558;2022-11-15T04:20:28;-5.01;68.17
69598;SHT31;56802;51.184;-115.558;2022-11-15T04:23:20;-5.04;68.09
69598;SHT31;56802;51.184;-115.558;2022-11-15T04:26:15;-4.99;68.03
69598;SHT31;56802;51.184;-115.558;2022-11-15T04:28:48;-4.95;67.76
69598;SHT31;56802;51.184;-115.558;2022-11-15T04:31:36;-4.97;67.79
69598;SHT31;56802;51.184;-115.558;2022-11-15T04:34:05;-4.98;67.88
69598;SHT31;56802;51.184;-115.558;2022-11-15T04:36:34;-5.01;67.98
69598;SHT31;56802;51.184;-115.558;2022-11-15T04:39:22;-4.97;67.96
69598;SHT31;56802;51.184;-115.558;2022-11-15T04:41:51;-4.95;67.76
69598;SHT31;56802;51.184;-115.558;2022-11-15T04:44:21;-5.02;67.83
69598;SHT31;56802;51.184;-115.558;2022-11-15T04:46:50;-5.12;67.95
69598;SHT31;56802;51.184;-115.558;2022-11-15T04:49:20;-5.08;68.04
69598;SHT31;56802;51.184;-115.558;2022-11-15T04:51:49;-5.12;67.86
69598;SHT31;56802;51.184;-115.558;2022-11-15T04:54:18;-5.10;67.88
69598;SHT31;56802;51.184;-115.558;2022-11-15T04:56:48;-5.12;67.73
69598;SHT31;56802;51.184;-115.558;2022-11-15T04:59:17;-5.22;68.03
69598;SHT31;56802;51.184;-115.558;2022-11-15T05:01:47;-5.24;68.12
69598;SHT31;56802;51.184;-115.558;2022-11-15T05:04:16;-5.26;68.28
69598;SHT31;56802;51.184;-115.558;2022-11-15T05:06:49;-5.21;68.18
69598;SHT31;56802;51.184;-115.558;2022-11-15T05:09:20;-5.23;68.29
69598;SHT31;56802;51.184;-115.558;2022-11-15T05:11:49;-5.30;68.30
69598;SHT31;56802;51.184;-115.558;2022-11-15T05:14:19;-5.33;68.39
69598;SHT31;56802;51.184;-115.558;2022-11-15T05:16:48;-5.38;68.58
69598;SHT31;56802;51.184;-115.558;2022-11-15T05:19:18;-5.38;68.59
69598;SHT31;56802;51.184;-115.558;2022-11-15T05:21:47;-5.41;68.70
69598;SHT31;56802;51.184;-115.558;2022-11-15T05:24:17;-5.39;68.65
69598;SHT31;56802;51.184;-115.558;2022-11-15T05:26:46;-5.37;68.54
69598;SHT31;56802;51.184;-115.558;2022-11-15T05:29:15;-5.35;68.48
69598;SHT31;56802;51.184;-115.558;2022-11-15T05:31:45;-5.45;68.69
69598;SHT31;56802;51.184;-115.558;2022-11-15T05:34:14;-5.51;68.86
69598;SHT31;56802;51.184;-115.558;2022-11-15T05:36:45;-5.57;68.92
69598;SHT31;56802;51.184;-115.558;2022-11-15T05:39:14;-5.56;68.98
69598;SHT31;56802;51.184;-115.558;2022-11-15T05:41:46;-5.51;68.81
69598;SHT31;56802;51.184;-115.558;2022-11-15T05:44:22;-5.57;68.84
69598;SHT31;56802;51.184;-115.558;2022-11-15T05:46:54;-5.67;68.97
69598;SHT31;56802;51.184;-115.558;2022-11-15T05:49:26;-5.68;69.06
69598;SHT31;56802;51.184;-115.558;2022-11-15T05:52:03;-5.76;69.26
69598;SHT31;56802;51.184;-115.558;2022-11-15T05:54:37;-5.83;69.47
69598;SHT31;56802;51.184;-115.558;2022-11-15T05:57:07;-5.79;69.47
69598;SHT31;56802;51.184;-115.558;2022-11-15T05:59:38;-5.83;69.45
69598;SHT31;56802;51.184;-115.558;2022-11-15T06:02:09;-5.86;69.61
69598;SHT31;56802;51.184;-115.558;2022-11-15T06:04:39;-5.88;69.66
69598;SHT31;56802;51.184;-115.558;2022-11-15T06:07:08;-5.91;69.67
69598;SHT31;56802;51.184;-115.558;2022-11-15T06:09:37;-5.96;69.92
69598;SHT31;56802;51.184;-115.558;2022-11-15T06:12:06;-5.99;70.06
69598;SHT31;56802;51.184;-115.558;2022-11-15T06:14:36;-5.96;69.96
69598;SHT31;56802;51.184;-115.558;2022-11-15T06:17:05;-6.05;70.00
69598;SHT31;56802;51.184;-115.558;2022-11-15T06:19:37;-6.13;70.32
69598;SHT31;56802;51.184;-115.558;2022-11-15T06:22:06;-6.08;70.23
69598;SHT31;56802;51.184;-115.558;2022-11-15T06:24:37;-6.13;70.31
69598;SHT31;56802;51.184;-115.558;2022-11-15T06:27:06;-6.18;70.36
69598;SHT31;56802;51.184;-115.558;2022-11-15T06:29:35;-6.19;70.49
69598;SHT31;56802;51.184;-115.558;2022-11-15T06:32:04;-6.19;70.50
69598;SHT31;56802;51.184;-115.558;2022-11-15T06:34:34;-6.18;70.41
69598;SHT31;56802;51.184;-115.558;2022-11-15T06:37:04;-6.22;70.61
69598;SHT31;56802;51.184;-115.558;2022-11-15T06:39:33;-6.18;70.70
69598;SHT31;56802;51.184;-115.558;2022-11-15T06:42:02;-6.20;70.69
69598;SHT31;56802;51.184;-115.558;2022-11-15T06:44:35;-6.26;70.83
69598;SHT31;56802;51.184;-115.558;2022-11-15T06:47:04;-6.32;70.95
69598;SHT31;56802;51.184;-115.558;2022-11-15T06:49:33;-6.34;71.08
69598;SHT31;56802;51.184;-115.558;2022-11-15T06:52:02;-6.37;71.10
69598;SHT31;56802;51.184;-115.558;2022-11-15T06:54:32;-6.36;70.97
69598;SHT31;56802;51.184;-115.558;2022-11-15T06:57:01;-6.35;70.90
69598;SHT31;56802;51.184;-115.558;2022-11-15T06:59:32;-6.35;70.81
69598;SHT31;56802;51.184;-115.558;2022-11-15T07:02:06;-6.39;70.74
69598;SHT31;56802;51.184;-115.558;2022-11-15T07:04:41;-6.42;70.88
69598;SHT31;56802;51.184;-115.558;2022-11-15T07:07:10;-6.39;70.87
69598;SHT31;56802;51.184;-115.558;2022-11-15T07:09:39;-6.42;70.92
69598;SHT31;56802;51.184;-115.558;2022-11-15T07:12:09;-6.39;71.07
69598;SHT31;56802;51.184;-115.558;2022-11-15T07:14:38;-6.38;71.00
69598;SHT31;56802;51.184;-115.558;2022-11-15T07:17:07;-6.38;70.95
69598;SHT31;56802;51.184;-115.558;2022-11-15T07:19:37;-6.41;70.98
69598;SHT31;56802;51.184;-115.558;2022-11-15T07:22:06;-6.49;71.09
69598;SHT31;56802;51.184;-115.558;2022-11-15T07:24:36;-6.57;71.35
69598;SHT31;56802;51.184;-115.558;2022-11-15T07:27:05;-6.50;71.50
69598;SHT31;56802;51.184;-115.558;2022-11-15T07:29:34;-6.53;71.45
69598;SHT31;56802;51.184;-115.558;2022-11-15T07:32:03;-6.57;71.62
69598;SHT31;56802;51.184;-115.558;2022-11-15T07:34:32;-6.61;71.56
69598;SHT31;56802;51.184;-115.558;2022-11-15T07:37:01;-6.65;71.67
69598;SHT31;56802;51.184;-115.558;2022-11-15T07:39:30;-6.70;71.72
69598;SHT31;56802;51.184;-115.558;2022-11-15T07:42:00;-6.73;71.82
69598;SHT31;56802;51.184;-115.558;2022-11-15T07:44:47;-6.71;71.84
69598;SHT31;56802;51.184;-115.558;2022-11-15T07:47:16;-6.75;71.91
69598;SHT31;56802;51.184;-115.558;2022-11-15T07:49:45;-6.77;71.97
69598;SHT31;56802;51.184;-115.558;2022-11-15T07:52:15;-6.79;72.00
69598;SHT31;56802;51.184;-115.558;2022-11-15T07:54:44;-6.80;72.05
69598;SHT31;56802;51.184;-115.558;2022-11-15T07:57:13;-6.75;72.00
69598;SHT31;56802;51.184;-115.558;2022-11-15T07:59:42;-6.71;71.87
69598;SHT31;56802;51.184;-115.558;2022-11-15T08:02:11;-6.69;71.74
69598;SHT31;56802;51.184;-115.558;2022-11-15T08:04:41;-6.68;71.64
69598;SHT31;56802;51.184;-115.558;2022-11-15T08:07:11;-6.66;71.48
69598;SHT31;56802;51.184;-115.558;2022-11-15T08:09:41;-6.71;71.46
69598;SHT31;56802;51.184;-115.558;2022-11-15T08:12:10;-6.73;71.44
69598;SHT31;56802;51.184;-115.558;2022-11-15T08:14:39;-6.77;71.47
69598;SHT31;56802;51.184;-115.558;2022-11-15T08:17:09;-6.82;71.56
69598;SHT31;56802;51.184;-115.558;2022-11-15T08:19:38;-6.86;71.63
69598;SHT31;56802;51.184;-115.558;2022-11-15T08:22:07;-6.93;71.87
69598;SHT31;56802;51.184;-115.558;2022-11-15T08:24:36;-6.91;72.18
69598;SHT31;56802;51.184;-115.558;2022-11-15T08:27:05;-6.85;72.20
69598;SHT31;56802;51.184;-115.558;2022-11-15T08:29:43;-6.84;72.12
69598;SHT31;56802;51.184;-115.558;2022-11-15T08:32:13;-6.82;71.99
69598;SHT31;56802;51.184;-115.558;2022-11-15T08:34:42;-6.86;72.18
69598;SHT31;56802;51.184;-115.558;2022-11-15T08:37:11;-6.87;72.37
69598;SHT31;56802;51.184;-115.558;2022-11-15T08:39:41;-6.82;72.24
69598;SHT31;56802;51.184;-115.558;2022-11-15T08:42:10;-6.87;72.17
69598;SHT31;56802;51.184;-115.558;2022-11-15T08:44:45;-6.90;72.23
69598;SHT31;56802;51.184;-115.558;2022-11-15T08:47:14;-6.97;72.41
69598;SHT31;56802;51.184;-115.558;2022-11-15T08:49:43;-6.97;72.45
69598;SHT31;56802;51.184;-115.558;2022-11-15T08:52:13;-7.05;72.65
69598;SHT31;56802;51.184;-115.558;2022-11-15T08:54:42;-7.06;72.62
69598;SHT31;56802;51.184;-115.558;2022-11-15T08:57:11;-7.09;72.65
69598;SHT31;56802;51.184;-115.558;2022-11-15T08:59:40;-7.11;72.60
69598;SHT31;56802;51.184;-115.558;2022-11-15T09:02:11;-7.09;72.49
69598;SHT31;56802;51.184;-115.558;2022-11-15T09:04:42;-7.10;72.24
69598;SHT31;56802;51.184;-115.558;2022-11-15T09:07:12;-7.09;72.16
69598;SHT31;56802;51.184;-115.558;2022-11-15T09:09:42;-7.09;71.98
69598;SHT31;56802;51.184;-115.558;2022-11-15T09:12:11;-7.13;72.00
69598;SHT31;56802;51.184;-115.558;2022-11-15T09:14:40;-7.18;72.07
69598;SHT31;56802;51.184;-115.558;2022-11-15T09:17:09;-7.21;72.22
69598;SHT31;56802;51.184;-115.558;2022-11-15T09:19:38;-7.22;72.18
69598;SHT31;56802;51.184;-115.558;2022-11-15T09:22:08;-7.25;72.07
69598;SHT31;56802;51.184;-115.558;2022-11-15T09:24:37;-7.30;72.17
69598;SHT31;56802;51.184;-115.558;2022-11-15T09:27:06;-7.32;72.24
69598;SHT31;56802;51.184;-115.558;2022-11-15T09:29:36;-7.37;72.31
69598;SHT31;56802;51.184;-115.558;2022-11-15T09:32:05;-7.44;72.44
69598;SHT31;56802;51.184;-115.558;2022-11-15T09:34:35;-7.46;72.68
69598;SHT31;56802;51.184;-115.558;2022-11-15T09:37:04;-7.46;72.80
69598;SHT31;56802;51.184;-115.558;2022-11-15T09:39:33;-7.43;72.85
69598;SHT31;56802;51.184;-115.558;2022-11-15T09:45:01;-7.44;72.79
69598;SHT31;56802;51.184;-115.558;2022-11-15T09:51:08;-7.48;72.84
69598;SHT31;56802;51.184;-115.558;2022-11-15T09:54:11;-7.50;72.83
69598;SHT31;56802;51.184;-115.558;2022-11-15T09:58:07;-7.52;72.93
69598;SHT31;56802;51.184;-115.558;2022-11-15T10:00:40;-7.51;72.95
69598;SHT31;56802;51.184;-115.558;2022-11-15T10:03:18;-7.54;73.03
69598;SHT31;56802;51.184;-115.558;2022-11-15T10:06:03;-7.58;73.07
69598;SHT31;56802;51.184;-115.558;2022-11-15T10:11:20;-7.57;73.17
69598;SHT31;56802;51.184;-115.558;2022-11-15T10:14:14;-7.52;73.11
69598;SHT31;56802;51.184;-115.558;2022-11-15T10:20:20;-7.56;73.11
69598;SHT31;56802;51.184;-115.558;2022-11-15T10:22:59;-7.59;73.13
69598;SHT31;56802;51.184;-115.558;2022-11-15T10:25:33;-7.61;73.26
69598;SHT31;56802;51.184;-115.558;2022-11-15T10:30:51;-7.64;73.21
69598;SHT31;56802;51.184;-115.558;2022-11-15T10:33:29;-7.67;73.32
69598;SHT31;56802;51.184;-115.558;2022-11-15T10:41:18;-7.69;73.34
69598;SHT31;56802;51.184;-115.558;2022-11-15T10:49:29;-7.76;73.39
69598;SHT31;56802;51.184;-115.558;2022-11-15T10:52:17;-7.80;73.34
69598;SHT31;56802;51.184;-115.558;2022-11-15T10:57:25;-7.88;73.40
69598;SHT31;56802;51.184;-115.558;2022-11-15T11:00:00;-7.91;73.44
69598;SHT31;56802;51.184;-115.558;2022-11-15T11:10:53;-7.98;73.77
69598;SHT31;56802;51.184;-115.558;2022-11-15T11:21:30;-8.01;73.85
69598;SHT31;56802;51.184;-115.558;2022-11-15T11:28:01;-8.12;73.80
69598;SHT31;56802;51.184;-115.558;2022-11-15T11:31:13;-8.11;73.80
69598;SHT31;56802;51.184;-115.558;2022-11-15T11:37:08;-8.11;73.62
69598;SHT31;56802;51.184;-115.558;2022-11-15T11:40:04;-8.17;73.68
69598;SHT31;56802;51.184;-115.558;2022-11-15T11:42:52;-8.18;73.89
69598;SHT31;56802;51.184;-115.558;2022-11-15T11:51:05;-8.22;74.08
69598;SHT31;56802;51.184;-115.558;2022-11-15T12:01:02;-8.17;73.89
69598;SHT31;56802;51.184;-115.558;2022-11-15T12:06:35;-8.13;73.80
69598;SHT31;56802;51.184;-115.558;2022-11-15T12:09:20;-8.16;73.68
69598;SHT31;56802;51.184;-115.558;2022-11-15T12:12:20;-8.20;73.79
69598;SHT31;56802;51.184;-115.558;2022-11-15T12:17:39;-8.23;73.70
69598;SHT31;56802;51.184;-115.558;2022-11-15T12:20:54;-8.20;73.54
69598;SHT31;56802;51.184;-115.558;2022-11-15T12:23:11;-8.26;73.51
69598;SHT31;56802;51.184;-115.558;2022-11-15T12:36:52;-8.30;73.56
69598;SHT31;56802;51.184;-115.558;2022-11-15T12:40:03;-8.33;73.51
69598;SHT31;56802;51.184;-115.558;2022-11-15T12:45:37;-8.43;73.67
69598;SHT31;56802;51.184;-115.558;2022-11-15T12:53:26;-8.54;73.73
69598;SHT31;56802;51.184;-115.558;2022-11-15T13:04:21;-8.60;73.92
69598;SHT31;56802;51.184;-115.558;2022-11-15T13:06:57;-8.65;73.95
69598;SHT31;56802;51.184;-115.558;2022-11-15T13:15:00;-8.63;74.11
69598;SHT31;56802;51.184;-115.558;2022-11-15T13:21:00;-8.53;74.04
69598;SHT31;56802;51.184;-115.558;2022-11-15T13:23:55;-8.55;73.98
69598;SHT31;56802;51.184;-115.558;2022-11-15T13:26:25;-8.56;74.05
69598;SHT31;56802;51.184;-115.558;2022-11-15T13:28:55;-8.57;74.07
69598;SHT31;56802;51.184;-115.558;2022-11-15T13:31:58;-8.57;74.12
69598;SHT31;56802;51.184;-115.558;2022-11-15T13:34:23;-8.53;73.98
69598;SHT31;56802;51.184;-115.558;2022-11-15T13:39:50;-8.38;73.56
69598;SHT31;56802;51.184;-115.558;2022-11-15T13:42:20;-8.38;73.48
69598;SHT31;56802;51.184;-115.558;2022-11-15T13:44:59;-8.40;73.46
69598;SHT31;56802;51.184;-115.558;2022-11-15T13:47:32;-8.47;73.69
69598;SHT31;56802;51.184;-115.558;2022-11-15T13:50:01;-8.51;73.96
69598;SHT31;56802;51.184;-115.558;2022-11-15T13:52:37;-8.53;74.10
69598;SHT31;56802;51.184;-115.558;2022-11-15T13:55:16;-8.52;74.22
69598;SHT31;56802;51.184;-115.558;2022-11-15T13:57:57;-8.54;74.28
69598;SHT31;56802;51.184;-115.558;2022-11-15T14:00:38;-8.53;74.38
69598;SHT31;56802;51.184;-115.558;2022-11-15T14:06:04;-8.45;74.15
69598;SHT31;56802;51.184;-115.558;2022-11-15T14:08:57;-8.41;74.10
69598;SHT31;56802;51.184;-115.558;2022-11-15T14:11:29;-8.43;74.00
69598;SHT31;56802;51.184;-115.558;2022-11-15T14:16:40;-8.50;73.94
69598;SHT31;56802;51.184;-115.558;2022-11-15T14:25:35;-8.41;73.93
69598;SHT31;56802;51.184;-115.558;2022-11-15T14:30:44;-8.25;73.52
69598;SHT31;56802;51.184;-115.558;2022-11-15T14:36:17;-8.32;73.51
69598;SHT31;56802;51.184;-115.558;2022-11-15T14:38:48;-8.41;73.75
69598;SHT31;56802;51.184;-115.558;2022-11-15T14:41:22;-8.43;73.88
69598;SHT31;56802;51.184;-115.558;2022-11-15T14:44:00;-8.40;73.99
69598;SHT31;56802;51.184;-115.558;2022-11-15T14:46:30;-8.40;74.02
69598;SHT31;56802;51.184;-115.558;2022-11-15T14:49:00;-8.40;74.05
69598;SHT31;56802;51.184;-115.558;2022-11-15T14:51:29;-8.37;73.97
69598;SHT31;56802;51.184;-115.558;2022-11-15T14:54:00;-8.36;73.76
69598;SHT31;56802;51.184;-115.558;2022-11-15T14:56:29;-8.40;73.71
69598;SHT31;56802;51.184;-115.558;2022-11-15T14:58:58;-8.43;73.85
69598;SHT31;56802;51.184;-115.558;2022-11-15T15:01:29;-8.40;73.67
69598;SHT31;56802;51.184;-115.558;2022-11-15T15:03:57;-8.40;73.54
69598;SHT31;56802;51.184;-115.558;2022-11-15T15:06:27;-8.35;73.45
69598;SHT31;56802;51.184;-115.558;2022-11-15T15:08:58;-8.34;73.29
69598;SHT31;56802;51.184;-115.558;2022-11-15T15:11:27;-8.44;73.33
69598;SHT31;56802;51.184;-115.558;2022-11-15T15:13:59;-8.50;73.62
69598;SHT31;56802;51.184;-115.558;2022-11-15T15:16:28;-8.48;73.71
69598;SHT31;56802;51.184;-115.558;2022-11-15T15:18:57;-8.42;73.60
69598;SHT31;56802;51.184;-115.558;2022-11-15T15:21:27;-8.43;73.56
69598;SHT31;56802;51.184;-115.558;2022-11-15T15:24:02;-8.39;73.61
69598;SHT31;56802;51.184;-115.558;2022-11-15T15:26:32;-8.36;73.58
69598;SHT31;56802;51.184;-115.558;2022-11-15T15:29:03;-8.36;73.70
69598;SHT31;56802;51.184;-115.558;2022-11-15T15:31:33;-8.38;73.79
69598;SHT31;56802;51.184;-115.558;2022-11-15T15:34:02;-8.38;73.69
69598;SHT31;56802;51.184;-115.558;2022-11-15T15:36:34;-8.43;73.56
69598;SHT31;56802;51.184;-115.558;2022-11-15T15:39:03;-8.46;73.64
69598;SHT31;56802;51.184;-115.558;2022-11-15T15:41:32;-8.45;73.73
69598;SHT31;56802;51.184;-115.558;2022-11-15T15:44:01;-8.43;73.75
69598;SHT31;56802;51.184;-115.558;2022-11-15T15:46:30;-8.41;73.83
69598;SHT31;56802;51.184;-115.558;2022-11-15T15:49:02;-8.40;73.89
69598;SHT31;56802;51.184;-115.558;2022-11-15T15:51:31;-8.43;73.83
69598;SHT31;56802;51.184;-115.558;2022-11-15T15:54:00;-8.43;73.88
69598;SHT31;56802;51.184;-115.558;2022-11-15T15:56:29;-8.41;73.73
69598;SHT31;56802;51.184;-115.558;2022-11-15T15:58:58;-8.42;73.83
69598;SHT31;56802;51.184;-115.558;2022-11-15T16:01:28;-8.40;73.92
69598;SHT31;56802;51.184;-115.558;2022-11-15T16:03:57;-8.41;74.13
69598;SHT31;56802;51.184;-115.558;2022-11-15T16:06:36;-8.42;74.21
69598;SHT31;56802;51.184;-115.558;2022-11-15T16:09:14;-8.40;74.22
69598;SHT31;56802;51.184;-115.558;2022-11-15T16:11:46;-8.36;74.31
69598;SHT31;56802;51.184;-115.558;2022-11-15T16:14:15;-8.32;74.33
69598;SHT31;56802;51.184;-115.558;2022-11-15T16:16:44;-8.29;74.31
69598;SHT31;56802;51.184;-115.558;2022-11-15T16:19:13;-8.24;74.27
69598;SHT31;56802;51.184;-115.558;2022-11-15T16:21:44;-8.22;74.13
69598;SHT31;56802;51.184;-115.558;2022-11-15T16:24:13;-8.20;74.25
69598;SHT31;56802;51.184;-115.558;2022-11-15T16:26:42;-8.19;74.43
69598;SHT31;56802;51.184;-115.558;2022-11-15T16:29:12;-8.09;74.74
69598;SHT31;56802;51.184;-115.558;2022-11-15T16:31:41;-7.96;74.62
69598;SHT31;56802;51.184;-115.558;2022-11-15T16:34:10;-7.89;74.41
69598;SHT31;56802;51.184;-115.558;2022-11-15T16:36:39;-7.84;74.21
69598;SHT31;56802;51.184;-115.558;2022-11-15T16:39:11;-7.83;74.05
69598;SHT31;56802;51.184;-115.558;2022-11-15T16:41:41;-7.82;73.99
69598;SHT31;56802;51.184;-115.558;2022-11-15T16:44:14;-7.78;73.95
69598;SHT31;56802;51.184;-115.558;2022-11-15T16:46:43;-7.69;73.90
69598;SHT31;56802;51.184;-115.558;2022-11-15T16:49:18;-7.61;73.85
69598;SHT31;56802;51.184;-115.558;2022-11-15T16:51:49;-7.59;73.70
69598;SHT31;56802;51.184;-115.558;2022-11-15T16:54:19;-7.54;73.79
69598;SHT31;56802;51.184;-115.558;2022-11-15T16:56:48;-7.47;73.97
69598;SHT31;56802;51.184;-115.558;2022-11-15T16:59:20;-7.37;74.10
69598;SHT31;56802;51.184;-115.558;2022-11-15T17:01:50;-7.33;73.56
69598;SHT31;56802;51.184;-115.558;2022-11-15T17:04:19;-7.33;73.36
69598;SHT31;56802;51.184;-115.558;2022-11-15T17:06:49;-7.29;73.51
69598;SHT31;56802;51.184;-115.558;2022-11-15T17:09:19;-7.24;73.38
69598;SHT31;56802;51.184;-115.558;2022-11-15T17:11:53;-7.18;73.22
69598;SHT31;56802;51.184;-115.558;2022-11-15T17:14:22;-7.10;73.16
69598;SHT31;56802;51.184;-115.558;2022-11-15T17:16:51;-7.03;73.20
69598;SHT31;56802;51.184;-115.558;2022-11-15T17:19:22;-6.96;73.12
69598;SHT31;56802;51.184;-115.558;2022-11-15T17:21:51;-6.89;72.95
69598;SHT31;56802;51.184;-115.558;2022-11-15T17:24:20;-6.83;72.80
69598;SHT31;56802;51.184;-115.558;2022-11-15T17:26:49;-6.80;72.83
69598;SHT31;56802;51.184;-115.558;2022-11-15T17:29:19;-6.74;72.87
69598;SHT31;56802;51.184;-115.558;2022-11-15T17:31:48;-6.70;72.71
69598;SHT31;56802;51.184;-115.558;2022-11-15T17:34:17;-6.66;72.65
69598;SHT31;56802;51.184;-115.558;2022-11-15T17:36:47;-6.62;72.33
69598;SHT31;56802;51.184;-115.558;2022-11-15T17:39:17;-6.60;72.29
69598;SHT31;56802;51.184;-115.558;2022-11-15T17:41:48;-6.57;72.24
69598;SHT31;56802;51.184;-115.558;2022-11-15T17:44:18;-6.55;72.04
69598;SHT31;56802;51.184;-115.558;2022-11-15T17:46:47;-6.52;72.00
69598;SHT31;56802;51.184;-115.558;2022-11-15T17:49:16;-6.48;71.82
69598;SHT31;56802;51.184;-115.558;2022-11-15T17:51:45;-6.44;71.86
69598;SHT31;56802;51.184;-115.558;2022-11-15T17:57:20;-6.28;71.92
69598;SHT31;56802;51.184;-115.558;2022-11-15T17:59:50;-6.19;71.95
69598;SHT31;56802;51.184;-115.558;2022-11-15T18:02:20;-6.11;71.68
69598;SHT31;56802;51.184;-115.558;2022-11-15T18:04:49;-6.05;71.61
69598;SHT31;56802;51.184;-115.558;2022-11-15T18:07:19;-6.03;71.48